Time;durP1;ratioP1;P1;durP2;ratioP2;P2;SDS_P1;SDS_P2;PMS_P1;PMS_P2;Temp;Humidity;BMP_temperature;BMP_pressure;BME280_temperature;BME280_humidity;BME280_pressure;Samples;Min_cycle;Max_cycle;Signal;HPM_P1;HPM_P2
2021/05/08 00:00:22;;;;;;;18.33;10.73;;;1.60;99.90;;;;;;6246149;23;20123;-88
2021/05/08 00:02:52;;;;;;;14.55;9.68;;;1.60;99.90;;;;;;6245949;23;20048;-87
2021/05/08 00:05:18;;;;;;;16.05;10.35;;;1.60;99.90;;;;;;6220205;23;20020;-86
2021/05/08 00:07:45;;;;;;;12.73;9.75;;;1.50;99.90;;;;;;6218280;23;20035;-87
2021/05/08 00:10:16;;;;;;;17.25;10.70;;;1.50;99.90;;;;;;6218526;23;20142;-86
2021/05/08 00:12:46;;;;;;;15.32;10.30;;;1.50;99.90;;;;;;6245430;23;20102;-87
2021/05/08 00:15:16;;;;;;;14.48;10.13;;;1.40;99.90;;;;;;6258555;22;20410;-85
2021/05/08 00:17:43;;;;;;;13.90;9.32;;;1.50;99.90;;;;;;6269565;22;20091;-86
2021/05/08 00:20:13;;;;;;;14.98;9.25;;;1.50;99.90;;;;;;6259336;22;20024;-85
2021/05/08 00:22:40;;;;;;;13.98;9.02;;;1.50;99.90;;;;;;6252074;23;20024;-87
2021/05/08 00:25:08;;;;;;;11.20;8.50;;;1.50;99.90;;;;;;6217443;23;20027;-88
2021/05/08 00:27:36;;;;;;;12.77;8.30;;;1.60;99.90;;;;;;6243974;23;20366;-87
2021/05/08 00:30:07;;;;;;;10.90;7.45;;;1.70;99.90;;;;;;6243299;23;20458;-87
2021/05/08 00:32:37;;;;;;;11.55;7.03;;;1.80;99.90;;;;;;6243555;23;20024;-87
2021/05/08 00:35:04;;;;;;;12.00;7.57;;;1.80;99.90;;;;;;6243560;23;20020;-88
2021/05/08 00:37:31;;;;;;;10.07;7.38;;;1.80;99.90;;;;;;6243534;23;20123;-87
2021/05/08 00:39:57;;;;;;;12.82;6.65;;;1.80;99.90;;;;;;6243640;23;20092;-88
2021/05/08 00:42:26;;;;;;;14.43;8.40;;;1.80;99.90;;;;;;6243761;23;20063;-87
2021/05/08 00:44:53;;;;;;;10.98;7.07;;;1.80;99.90;;;;;;6243729;23;20031;-87
2021/05/08 00:47:20;;;;;;;9.93;7.68;;;1.70;99.90;;;;;;6217284;23;20024;-88
2021/05/08 00:49:47;;;;;;;15.70;10.38;;;1.60;99.90;;;;;;6243730;23;20085;-88
2021/05/08 00:52:16;;;;;;;12.75;8.38;;;1.60;99.90;;;;;;6217531;23;20024;-86
2021/05/08 00:54:44;;;;;;;11.52;7.78;;;1.50;99.90;;;;;;6244021;23;20039;-87
2021/05/08 00:57:12;;;;;;;10.30;6.68;;;1.40;99.90;;;;;;6244063;23;20028;-87
2021/05/08 00:59:39;;;;;;;10.82;6.82;;;1.30;99.90;;;;;;6217592;23;20087;-88
2021/05/08 01:02:07;;;;;;;9.25;6.20;;;1.20;99.90;;;;;;6217352;23;20020;-86
2021/05/08 01:04:36;;;;;;;9.68;6.85;;;1.20;99.90;;;;;;6243657;23;20016;-86
2021/05/08 01:07:03;;;;;;;8.88;5.88;;;1.10;99.90;;;;;;6193441;23;20016;-88
2021/05/08 01:09:31;;;;;;;8.48;6.93;;;1.10;99.90;;;;;;6246409;23;20377;-87
2021/05/08 01:11:57;;;;;;;8.07;6.47;;;1.00;99.90;;;;;;6243314;23;20103;-87
2021/05/08 01:14:24;;;;;;;12.93;7.15;;;1.10;99.90;;;;;;6243847;23;20067;-87
2021/05/08 01:16:51;;;;;;;11.68;7.32;;;1.00;99.90;;;;;;6243954;23;20047;-87
2021/05/08 01:19:19;;;;;;;11.98;6.75;;;1.00;99.90;;;;;;6244330;23;20039;-88
2021/05/08 01:21:49;;;;;;;11.40;6.93;;;1.00;99.90;;;;;;6218281;23;20020;-86
2021/05/08 01:24:16;;;;;;;14.38;6.43;;;1.00;99.90;;;;;;6244449;23;20070;-87
2021/05/08 01:26:43;;;;;;;8.93;6.60;;;1.10;99.90;;;;;;6243806;23;20376;-87
2021/05/08 01:29:10;;;;;;;9.98;6.55;;;1.10;99.90;;;;;;6244549;23;20111;-87
2021/05/08 01:31:36;;;;;;;13.38;7.32;;;1.10;99.90;;;;;;6243433;23;20378;-87
2021/05/08 01:34:03;;;;;;;8.60;6.88;;;1.10;99.90;;;;;;6244213;23;20030;-87
2021/05/08 01:36:32;;;;;;;16.13;7.20;;;1.10;99.90;;;;;;6217906;23;20075;-87
2021/05/08 01:39:00;;;;;;;14.25;6.90;;;1.10;99.90;;;;;;6244564;23;20058;-87
2021/05/08 01:41:29;;;;;;;9.20;6.63;;;1.00;99.90;;;;;;6244877;23;20055;-87
2021/05/08 01:43:56;;;;;;;10.52;6.68;;;1.00;99.90;;;;;;6247626;23;20024;-87
2021/05/08 01:46:22;;;;;;;9.20;6.97;;;0.90;99.90;;;;;;6253587;23;20492;-88
2021/05/08 01:48:51;;;;;;;10.32;6.65;;;0.90;99.90;;;;;;6255228;23;20028;-86
2021/05/08 01:51:18;;;;;;;9.35;6.88;;;0.90;99.90;;;;;;6251902;23;20107;-88
2021/05/08 01:53:47;;;;;;;10.20;7.00;;;0.80;99.90;;;;;;6219115;23;20024;-88
2021/05/08 01:56:14;;;;;;;12.20;7.25;;;0.80;99.90;;;;;;6244387;23;20106;-88
2021/05/08 01:58:41;;;;;;;10.98;7.13;;;0.80;99.90;;;;;;6243303;23;20103;-85
2021/05/08 02:01:07;;;;;;;11.27;7.13;;;0.70;99.90;;;;;;6217246;23;20098;-86
2021/05/08 02:03:34;;;;;;;11.18;7.28;;;0.70;99.90;;;;;;6244749;23;20031;-87
2021/05/08 02:06:05;;;;;;;11.77;7.68;;;0.70;99.90;;;;;;6219179;23;20035;-88
2021/05/08 02:08:31;;;;;;;12.45;7.97;;;0.70;99.90;;;;;;6219451;23;20047;-87
2021/05/08 02:10:58;;;;;;;16.65;8.50;;;0.70;99.90;;;;;;6194494;23;20054;-88
2021/05/08 02:13:25;;;;;;;11.80;8.13;;;0.70;99.90;;;;;;6247426;23;20024;-88
2021/05/08 02:15:54;;;;;;;12.55;8.18;;;0.70;99.90;;;;;;6246570;23;20052;-88
2021/05/08 02:18:23;;;;;;;14.13;8.10;;;0.70;99.90;;;;;;6220398;23;20086;-87
2021/05/08 02:20:49;;;;;;;11.43;7.65;;;0.70;99.90;;;;;;6248470;23;20051;-88
2021/05/08 02:23:18;;;;;;;10.90;7.68;;;0.70;99.90;;;;;;6255695;23;20105;-87
2021/05/08 02:25:44;;;;;;;10.27;7.45;;;0.70;99.90;;;;;;6225970;23;20020;-89
2021/05/08 02:28:15;;;;;;;13.68;7.78;;;0.70;99.90;;;;;;6221470;23;20043;-88
2021/05/08 02:30:43;;;;;;;11.98;8.20;;;0.60;99.90;;;;;;6246947;23;20021;-87
2021/05/08 02:33:12;;;;;;;15.30;8.15;;;0.60;99.90;;;;;;6246196;23;20439;-87
2021/05/08 02:35:41;;;;;;;10.38;7.85;;;0.50;99.90;;;;;;6225542;23;20067;-87
2021/05/08 02:38:07;;;;;;;10.43;7.85;;;0.50;99.90;;;;;;6229514;23;20068;-87
2021/05/08 02:40:37;;;;;;;11.20;7.65;;;0.40;99.90;;;;;;6258196;23;20020;-86
2021/05/08 02:43:08;;;;;;;17.17;8.02;;;0.30;99.90;;;;;;6246467;23;20051;-87
2021/05/08 02:45:37;;;;;;;11.55;7.95;;;0.20;99.90;;;;;;6245166;23;20020;-87
2021/05/08 02:48:07;;;;;;;13.13;8.77;;;0.20;99.90;;;;;;6218970;23;20308;-87
2021/05/08 02:50:34;;;;;;;13.60;8.75;;;0.20;99.90;;;;;;6246495;23;20035;-87
2021/05/08 02:53:00;;;;;;;11.40;8.43;;;0.10;99.90;;;;;;6259178;23;20008;-86
2021/05/08 02:55:27;;;;;;;14.93;8.90;;;0.10;99.90;;;;;;6259117;23;20059;-88
2021/05/08 02:57:53;;;;;;;14.27;9.25;;;0.00;99.90;;;;;;6259212;23;20039;-86
2021/05/08 03:00:20;;;;;;;15.13;8.85;;;0.00;99.90;;;;;;6233324;23;20114;-86
2021/05/08 03:02:47;;;;;;;14.80;8.85;;;0.10;99.90;;;;;;6240408;23;20072;-86
2021/05/08 03:05:14;;;;;;;14.45;8.98;;;0.10;99.90;;;;;;6257008;23;20127;-87
2021/05/08 03:07:40;;;;;;;12.48;8.80;;;0.00;99.90;;;;;;6225561;23;20115;-87
2021/05/08 03:10:08;;;;;;;14.02;9.15;;;0.00;99.90;;;;;;6244471;23;20439;-87
2021/05/08 03:12:37;;;;;;;17.45;9.90;;;0.00;99.90;;;;;;6244921;23;20398;-87
2021/05/08 03:15:05;;;;;;;17.95;9.93;;;-0.10;99.90;;;;;;6226176;23;20043;-87
2021/05/08 03:17:32;;;;;;;13.32;9.60;;;-0.10;99.90;;;;;;6259529;23;20051;-88
2021/05/08 03:20:00;;;;;;;16.05;10.10;;;0.00;99.90;;;;;;6249299;23;20089;-87
2021/05/08 03:22:27;;;;;;;20.75;9.85;;;0.10;99.90;;;;;;6247365;23;20048;-87
2021/05/08 03:24:55;;;;;;;12.63;9.48;;;0.20;99.90;;;;;;6231351;23;20020;-86
2021/05/08 03:27:22;;;;;;;15.07;10.48;;;0.20;99.90;;;;;;6255516;23;20323;-87
2021/05/08 03:29:48;;;;;;;16.75;10.32;;;0.20;99.90;;;;;;6245979;23;20099;-87
2021/05/08 03:32:14;;;;;;;18.48;9.85;;;0.20;99.90;;;;;;6219420;23;20095;-88
2021/05/08 03:34:41;;;;;;;12.85;10.07;;;0.20;99.90;;;;;;6219720;23;20016;-88
2021/05/08 03:37:08;;;;;;;15.02;9.45;;;0.20;99.90;;;;;;6245377;23;20055;-88
2021/05/08 03:39:34;;;;;;;12.85;9.35;;;0.20;99.90;;;;;;6219210;23;20123;-87
2021/05/08 03:42:01;;;;;;;16.13;10.05;;;0.10;99.90;;;;;;6245557;23;20087;-87
2021/05/08 03:44:28;;;;;;;12.40;9.13;;;0.10;99.90;;;;;;6257776;22;20012;-88
2021/05/08 03:46:56;;;;;;;14.60;9.95;;;0.00;99.90;;;;;;6243267;22;20008;-86
2021/05/08 03:49:25;;;;;;;13.40;9.95;;;0.00;99.90;;;;;;6260975;22;20307;-88
2021/05/08 03:52:00;;;;;;;20.25;11.18;;;0.00;99.90;;;;;;6254289;23;20020;-87
2021/05/08 03:54:27;;;;;;;15.35;11.45;;;0.10;99.90;;;;;;6245535;23;20069;-88
2021/05/08 03:56:56;;;;;;;17.67;11.98;;;0.20;99.90;;;;;;6244693;23;20016;-86
2021/05/08 03:59:24;;;;;;;16.70;12.38;;;0.30;99.90;;;;;;6218205;23;20313;-88
2021/05/08 04:01:51;;;;;;;20.52;11.18;;;0.40;99.90;;;;;;6244150;23;20080;-87
2021/05/08 04:04:17;;;;;;;17.25;12.45;;;0.50;99.90;;;;;;6244405;23;20020;-87
2021/05/08 04:06:46;;;;;;;17.25;11.93;;;0.50;99.90;;;;;;6244550;23;20404;-87
2021/05/08 04:09:15;;;;;;;14.45;10.23;;;0.60;99.90;;;;;;6217423;23;20617;-87
2021/05/08 04:11:42;;;;;;;16.17;10.18;;;0.60;99.90;;;;;;6217280;23;20424;-87
2021/05/08 04:14:08;;;;;;;14.18;10.57;;;0.60;99.90;;;;;;6244920;23;20119;-85
2021/05/08 04:16:35;;;;;;;12.70;9.35;;;0.60;99.90;;;;;;6219520;23;20036;-86
2021/05/08 04:19:03;;;;;;;15.95;9.73;;;0.60;99.90;;;;;;6244983;23;20342;-87
2021/05/08 04:21:30;;;;;;;19.83;10.25;;;0.60;99.90;;;;;;6244311;23;20047;-86
2021/05/08 04:23:57;;;;;;;15.23;10.02;;;0.50;99.90;;;;;;6244120;23;20095;-85
2021/05/08 04:26:24;;;;;;;15.35;9.85;;;0.50;99.90;;;;;;6244776;23;20026;-86
2021/05/08 04:28:53;;;;;;;15.48;10.35;;;0.50;99.90;;;;;;6244559;23;20327;-86
2021/05/08 04:31:20;;;;;;;11.55;8.82;;;0.60;99.90;;;;;;6243703;23;20099;-86
2021/05/08 04:33:47;;;;;;;18.13;9.73;;;0.60;99.90;;;;;;6217722;23;20127;-88
2021/05/08 04:36:14;;;;;;;12.80;9.27;;;0.60;99.90;;;;;;6216189;23;20023;-88
2021/05/08 04:38:40;;;;;;;14.02;9.13;;;0.60;99.90;;;;;;6217296;23;20063;-86
2021/05/08 04:41:07;;;;;;;14.48;9.23;;;0.60;99.90;;;;;;6217114;23;20032;-88
2021/05/08 04:43:34;;;;;;;15.05;8.95;;;0.70;99.90;;;;;;6244036;23;20599;-87
2021/05/08 04:46:03;;;;;;;14.35;9.27;;;0.70;99.90;;;;;;6243970;23;20020;-88
2021/05/08 04:48:33;;;;;;;16.50;9.50;;;0.70;99.90;;;;;;6244178;23;20051;-87
2021/05/08 04:51:00;;;;;;;13.13;9.90;;;0.80;99.90;;;;;;6243703;23;20047;-88
2021/05/08 04:53:27;;;;;;;10.95;9.40;;;0.90;99.90;;;;;;6244495;23;20103;-87
2021/05/08 04:55:54;;;;;;;14.30;9.27;;;0.90;99.90;;;;;;6243110;23;20126;-87
2021/05/08 04:58:20;;;;;;;15.18;8.57;;;1.00;99.90;;;;;;6217329;23;20093;-88
2021/05/08 05:00:47;;;;;;;17.05;8.93;;;1.00;99.90;;;;;;6242757;23;20047;-83
2021/05/08 05:03:13;;;;;;;19.85;9.48;;;1.00;99.90;;;;;;6243298;23;20039;-85
2021/05/08 05:05:39;;;;;;;10.93;8.63;;;1.10;99.90;;;;;;6216907;23;20095;-85
2021/05/08 05:08:06;;;;;;;18.25;9.18;;;1.20;99.90;;;;;;6217322;23;20376;-84
2021/05/08 05:10:33;;;;;;;15.63;9.20;;;1.30;99.90;;;;;;6242936;23;20499;-85
2021/05/08 05:13:00;;;;;;;11.38;8.63;;;1.40;99.90;;;;;;6243406;23;20020;-85
2021/05/08 05:15:27;;;;;;;13.95;8.30;;;1.50;99.90;;;;;;6243634;23;20024;-85
2021/05/08 05:17:56;;;;;;;13.48;8.20;;;1.50;99.90;;;;;;6216594;23;20110;-87
2021/05/08 05:20:22;;;;;;;11.98;8.32;;;1.60;99.90;;;;;;6243249;23;20030;-85
2021/05/08 05:22:49;;;;;;;11.75;8.48;;;1.70;99.90;;;;;;6192713;23;20371;-85
2021/05/08 05:25:16;;;;;;;12.48;8.77;;;1.80;99.90;;;;;;6243603;23;20032;-85
2021/05/08 05:27:45;;;;;;;12.25;8.52;;;1.90;99.90;;;;;;6243624;23;20091;-86
2021/05/08 05:30:12;;;;;;;11.43;8.50;;;2.00;99.90;;;;;;6242162;23;20051;-86
2021/05/08 05:32:38;;;;;;;12.77;8.30;;;2.20;99.90;;;;;;6242755;23;20020;-85
2021/05/08 05:35:34;;;;;;;14.30;7.88;;;2.30;99.90;;;;;;6242373;23;20082;-84
2021/05/08 05:38:04;;;;;;;14.05;7.90;;;2.70;99.90;;;;;;6243076;23;20104;-91
2021/05/08 05:40:38;;;;;;;11.77;7.47;;;3.00;99.90;;;;;;6245920;23;20020;-90
2021/05/08 05:43:06;;;;;;;12.83;7.80;;;3.30;99.90;;;;;;6220047;23;20078;-91
2021/05/08 05:45:35;;;;;;;11.40;8.13;;;3.60;99.90;;;;;;6245670;23;20589;-90
2021/05/08 05:48:04;;;;;;;13.35;7.85;;;3.80;99.90;;;;;;6220605;23;20101;-89
2021/05/08 05:50:43;;;;;;;16.33;8.80;;;4.10;99.90;;;;;;6248315;23;20063;-91
2021/05/08 05:53:12;;;;;;;12.95;8.25;;;4.40;99.90;;;;;;6249269;23;20020;-91
2021/05/08 05:55:44;;;;;;;9.50;6.18;;;4.80;99.90;;;;;;6222855;23;20016;-90
2021/05/08 05:58:13;;;;;;;7.82;5.00;;;5.10;99.90;;;;;;6248680;23;20063;-90
2021/05/08 06:00:40;;;;;;;9.63;6.45;;;5.50;99.90;;;;;;6220398;23;20096;-91
2021/05/08 06:03:06;;;;;;;9.57;5.50;;;6.00;99.90;;;;;;6247370;23;20381;-90
2021/05/08 06:05:32;;;;;;;7.53;5.05;;;6.30;99.90;;;;;;6247908;23;20088;-91
2021/05/08 06:07:59;;;;;;;9.85;5.38;;;6.50;99.90;;;;;;6246902;23;20020;-93
2021/05/08 06:10:26;;;;;;;6.18;4.53;;;6.90;99.90;;;;;;6248790;23;20031;-91
2021/05/08 06:12:52;;;;;;;6.85;4.40;;;7.10;99.90;;;;;;6247649;23;20024;-90
2021/05/08 06:15:22;;;;;;;6.28;4.43;;;7.30;99.90;;;;;;6248852;23;20047;-91
2021/05/08 06:18:21;;;;;;;;;;;;;;;;;;;;;
2021/05/08 06:21:30;;;;;;;6.22;4.00;;;7.70;99.90;;;;;;6239557;23;20283;-91
2021/05/08 06:28:24;;;;;;;8.17;4.10;;;8.40;99.90;;;;;;5925769;24;20686;-92
2021/05/08 06:31:26;;;;;;;;;;;;;;;;;;;;;
2021/05/08 06:34:16;;;;;;;6.82;3.88;;;9.00;97.40;;;;;;5808229;24;20062;-90
2021/05/08 06:37:43;;;;;;;7.90;4.32;;;9.20;94.60;;;;;;5796888;24;20345;-92
2021/05/08 06:47:04;;;;;;;7.90;3.67;;;9.80;86.00;;;;;;5873938;24;20100;-90
2021/05/08 06:50:43;;;;;;;;;;;;;;;;;;;;;
2021/05/08 06:53:44;;;;;;;;;;;;;;;;;;;;;
2021/05/08 07:35:41;;;;;;;;;;;;;;;;;;;;;
2021/05/08 07:39:00;;;;;;;;;;;;;;;;;;;;;
2021/05/08 07:41:39;;;;;;;4.18;2.28;;;15.10;55.80;;;;;;6234446;22;20027;-91
2021/05/08 07:44:12;;;;;;;2.80;1.95;;;15.10;56.50;;;;;;6315310;22;20034;-88
2021/05/08 07:46:52;;;;;;;4.18;2.15;;;14.60;56.30;;;;;;6316135;22;20038;-89
2021/05/08 07:49:33;;;;;;;7.35;2.00;;;14.40;60.10;;;;;;6264527;22;20011;-89
2021/05/08 07:52:04;;;;;;;3.78;1.98;;;14.60;60.90;;;;;;6314577;22;20026;-89
2021/05/08 07:54:58;;;;;;;4.72;2.00;;;15.00;57.80;;;;;;6314462;22;20699;-91
2021/05/08 07:58:10;;;;;;;;;;;;;;;;;;;;;
2021/05/08 08:00:43;;;;;;;2.42;1.90;;;15.60;56.80;;;;;;6314080;22;20077;-89
2021/05/08 08:03:13;;;;;;;3.88;1.90;;;16.10;51.30;;;;;;6319104;22;20034;-89
2021/05/08 08:05:55;;;;;;;3.97;1.77;;;16.00;52.30;;;;;;6321853;22;20093;-88
2021/05/08 08:08:28;;;;;;;2.70;1.92;;;16.20;52.80;;;;;;6294872;22;20425;-91
2021/05/08 08:11:33;;;;;;;;;;;;;;;;;;;;;
2021/05/08 08:14:40;;;;;;;5.13;2.08;;;16.90;51.50;;;;;;6149607;23;20026;-90
2021/05/08 08:17:37;;;;;;;2.58;1.17;;;17.20;47.20;;;;;;6158578;23;20438;-90
2021/05/08 08:20:11;;;;;;;3.08;1.52;;;16.80;48.30;;;;;;6158968;23;20424;-87
2021/05/08 08:22:42;;;;;;;3.58;1.70;;;16.40;48.10;;;;;;6159666;23;20049;-89
2021/05/08 08:25:11;;;;;;;3.08;1.50;;;16.10;48.60;;;;;;6158105;23;20072;-89
2021/05/08 08:27:38;;;;;;;3.70;1.90;;;16.10;47.00;;;;;;6157886;23;20139;-90
2021/05/08 08:30:08;;;;;;;4.25;1.83;;;16.10;47.80;;;;;;6155251;23;20021;-88
2021/05/08 08:32:35;;;;;;;5.63;2.65;;;16.00;49.40;;;;;;6280131;22;20083;-87
2021/05/08 08:35:09;;;;;;;6.50;1.60;;;16.50;49.10;;;;;;6309879;22;20015;-90
2021/05/08 08:37:43;;;;;;;4.97;1.88;;;16.70;46.40;;;;;;6259161;22;20070;-90
2021/05/08 08:40:18;;;;;;;13.93;10.25;;;17.30;46.70;;;;;;6307076;22;20018;-89
2021/05/08 08:42:46;;;;;;;4.22;1.58;;;17.40;44.30;;;;;;6282151;22;20366;-88
2021/05/08 08:45:33;;;;;;;4.07;1.75;;;17.00;43.50;;;;;;6307170;22;20053;-91
2021/05/08 08:48:07;;;;;;;2.72;1.80;;;16.80;44.30;;;;;;6310081;22;20102;-90
2021/05/08 08:50:39;;;;;;;3.47;2.10;;;17.00;45.60;;;;;;6307295;22;20382;-89
2021/05/08 08:53:17;;;;;;;5.90;3.60;;;17.40;43.70;;;;;;6278927;22;20106;-91
2021/05/08 08:55:58;;;;;;;3.08;1.27;;;17.00;44.10;;;;;;6306262;22;20355;-89
2021/05/08 08:58:53;;;;;;;1.85;1.35;;;16.90;44.10;;;;;;6307238;22;20485;-91
2021/05/08 09:01:25;;;;;;;3.15;2.35;;;16.40;45.10;;;;;;6306462;22;20020;-89
2021/05/08 09:04:17;;;;;;;1.63;1.40;;;15.70;45.80;;;;;;6307426;22;20076;-90
2021/05/08 09:06:57;;;;;;;12.27;6.90;;;16.10;47.00;;;;;;6307077;22;20098;-90
2021/05/08 09:09:33;;;;;;;3.13;1.67;;;16.90;45.80;;;;;;6279403;22;20586;-89
2021/05/08 09:12:24;;;;;;;;;;;;;;;;;;;;;
2021/05/08 09:14:58;;;;;;;4.13;1.65;;;16.20;46.90;;;;;;6306521;22;20152;-88
2021/05/08 09:17:52;;;;;;;2.22;1.25;;;16.00;46.40;;;;;;6306890;22;20037;-90
2021/05/08 09:20:48;;;;;;;1.88;1.50;;;15.80;46.30;;;;;;6306250;22;20434;-90
2021/05/08 09:23:22;;;;;;;2.40;1.70;;;15.60;47.90;;;;;;6279170;22;20027;-87
2021/05/08 09:26:14;;;;;;;3.92;2.00;;;15.60;47.40;;;;;;6308708;22;20088;-88
2021/05/08 09:29:22;;;;;;;;;;;;;;;;;;;;;
2021/05/08 09:32:18;;;;;;;3.75;1.80;;;15.80;45.90;;;;;;6287764;22;20063;-91
2021/05/08 09:39:40;;;;;;;2.40;1.30;;;16.50;46.10;;;;;;6207737;22;20089;-93
2021/05/08 09:42:51;;;;;;;2.00;1.30;;;17.10;45.40;;;;;;6205650;23;20137;-91
2021/05/08 09:45:50;;;;;;;2.40;2.20;;;16.90;42.50;;;;;;6193572;23;20056;-90
2021/05/08 09:48:39;;;;;;;2.13;1.20;;;16.90;43.90;;;;;;6185918;23;20033;-92
2021/05/08 09:51:26;;;;;;;1.83;1.35;;;17.70;43.10;;;;;;6067240;23;20073;-90
2021/05/08 09:54:21;;;;;;;3.65;1.60;;;17.90;41.70;;;;;;6045637;23;20046;-90
2021/05/08 09:56:49;;;;;;;2.42;1.52;;;17.50;40.50;;;;;;6078606;23;20094;-89
2021/05/08 10:06:49;;;;;;;1.88;1.45;;;17.80;42.70;;;;;;6034558;23;20099;-89
2021/05/08 10:10:18;;;;;;;2.67;1.73;;;18.70;41.00;;;;;;5997859;23;20023;-90
2021/05/08 10:13:43;;;;;;;;;;;;;;;;;;;;;
2021/05/08 10:16:25;;;;;;;2.90;1.50;;;18.90;41.50;;;;;;6079314;23;20180;-88
2021/05/08 10:19:30;;;;;;;3.75;1.45;;;20.00;39.40;;;;;;6065077;23;20478;-91
2021/05/08 10:22:09;;;;;;;2.60;1.60;;;20.60;39.20;;;;;;6039576;23;20095;-91
2021/05/08 10:25:22;;;;;;;1.90;1.20;;;20.40;38.30;;;;;;6039268;23;20023;-92
2021/05/08 10:27:54;;;;;;;;;;;21.40;36.80;;;;;;6114770;23;20036;-90
2021/05/08 10:30:42;;;;;;;2.58;1.33;;;21.80;36.10;;;;;;6180337;23;19930;-89
2021/05/08 10:33:10;;;;;;;2.67;1.80;;;22.20;36.40;;;;;;6179753;23;20029;-87
2021/05/08 10:35:56;;;;;;;4.00;2.03;;;21.70;36.40;;;;;;6180653;23;20032;-87
2021/05/08 10:38:34;;;;;;;2.58;1.60;;;21.10;37.50;;;;;;6298323;22;20019;-90
2021/05/08 10:41:12;;;;;;;2.65;2.00;;;20.70;37.60;;;;;;6243474;22;20012;-89
2021/05/08 10:46:53;;;;;;;3.30;2.00;;;20.50;39.00;;;;;;6234647;22;20031;-91
2021/05/08 10:49:32;;;;;;;2.30;1.80;;;20.40;39.40;;;;;;6244679;23;20380;-91
2021/05/08 10:52:01;;;;;;;2.72;1.65;;;20.60;39.70;;;;;;6219505;23;20032;-88
2021/05/08 10:54:43;;;;;;;2.35;1.60;;;20.70;39.00;;;;;;6243600;22;20024;-87
2021/05/08 10:57:20;;;;;;;2.80;1.88;;;20.20;37.80;;;;;;6243609;22;20315;-88
2021/05/08 11:00:03;;;;;;;2.17;1.40;;;20.10;41.10;;;;;;6244724;22;20044;-87
2021/05/08 11:02:47;;;;;;;3.47;1.33;;;20.70;40.70;;;;;;6244109;22;20072;-90
2021/05/08 11:05:26;;;;;;;2.15;1.42;;;21.20;37.60;;;;;;6244876;22;20062;-87
2021/05/08 11:07:52;;;;;;;1.65;1.42;;;20.90;37.80;;;;;;6244733;22;20529;-87
2021/05/08 11:10:34;;;;;;;1.42;1.33;;;20.10;36.80;;;;;;6244350;23;20293;-87
2021/05/08 11:13:08;;;;;;;2.80;1.20;;;20.10;38.50;;;;;;6242839;23;20028;-86
2021/05/08 11:16:11;;;;;;;4.20;2.05;;;20.50;38.20;;;;;;6241510;23;20315;-87
2021/05/08 11:18:42;;;;;;;2.85;1.60;;;21.20;38.20;;;;;;6193960;23;20423;-87
2021/05/08 11:21:08;;;;;;;4.97;1.30;;;21.00;38.40;;;;;;6244344;22;20087;-88
2021/05/08 11:23:51;;;;;;;2.25;1.40;;;21.00;36.10;;;;;;6244377;23;20386;-87
2021/05/08 11:26:37;;;;;;;;;;;20.00;36.60;;;;;;6243333;23;20032;-86
2021/05/08 11:29:17;;;;;;;3.53;1.27;;;19.50;37.00;;;;;;6228097;23;19923;-88
2021/05/08 11:31:50;;;;;;;1.80;1.38;;;19.40;38.80;;;;;;6244471;23;20315;-88
2021/05/08 11:34:28;;;;;;;1.48;1.00;;;20.30;37.90;;;;;;6244026;23;20095;-88
2021/05/08 11:37:09;;;;;;;1.80;1.38;;;21.10;38.40;;;;;;6243964;22;20059;-89
2021/05/08 11:39:38;;;;;;;1.83;1.30;;;20.60;37.20;;;;;;6271021;22;20080;-88
2021/05/08 11:42:16;;;;;;;1.55;1.30;;;19.10;39.50;;;;;;6306569;22;20073;-87
2021/05/08 11:45:01;;;;;;;2.50;1.30;;;18.90;40.60;;;;;;6306419;22;20019;-89
2021/05/08 11:47:34;;;;;;;2.17;1.30;;;18.80;42.30;;;;;;6279465;22;20312;-88
2021/05/08 11:50:08;;;;;;;1.15;1.05;;;18.40;41.30;;;;;;6306588;22;20414;-88
2021/05/08 11:52:40;;;;;;;2.50;1.70;;;17.70;42.30;;;;;;6306585;22;20390;-88
2021/05/08 11:55:21;;;;;;;5.43;1.63;;;18.00;44.00;;;;;;6305586;22;20082;-88
2021/05/08 11:57:59;;;;;;;3.30;1.33;;;18.60;43.00;;;;;;6306763;22;20023;-89
2021/05/08 12:00:32;;;;;;;1.55;1.30;;;18.90;42.90;;;;;;6306711;22;20016;-88
2021/05/08 12:03:15;;;;;;;1.95;1.30;;;18.90;43.80;;;;;;6306605;22;20019;-88
2021/05/08 12:05:46;;;;;;;4.32;2.08;;;18.70;42.80;;;;;;6280384;22;20019;-88
2021/05/08 12:08:22;;;;;;;3.78;1.15;;;18.40;44.10;;;;;;6308851;22;20156;-86
2021/05/08 12:10:52;;;;;;;3.25;1.35;;;18.50;44.30;;;;;;6309049;22;20326;-87
2021/05/08 12:13:28;;;;;;;1.95;1.13;;;18.40;44.50;;;;;;6307735;22;20140;-87
2021/05/08 12:16:00;;;;;;;2.65;1.00;;;18.40;43.80;;;;;;6280387;22;20096;-87
2021/05/08 12:18:27;;;;;;;3.08;1.38;;;18.10;43.70;;;;;;6307615;22;20019;-87
2021/05/08 12:20:54;;;;;;;2.70;1.25;;;18.00;43.00;;;;;;6307737;22;20058;-89
2021/05/08 12:23:27;;;;;;;1.98;1.10;;;18.10;43.90;;;;;;6281408;22;20020;-87
2021/05/08 12:26:15;;;;;;;1.40;0.88;;;17.80;43.10;;;;;;6255839;22;20023;-88
2021/05/08 12:28:44;;;;;;;1.95;1.10;;;17.70;43.90;;;;;;6308390;22;20023;-88
2021/05/08 12:31:23;;;;;;;1.20;1.02;;;17.90;44.10;;;;;;6309467;22;20030;-86
2021/05/08 12:33:51;;;;;;;1.85;1.30;;;17.90;43.80;;;;;;6308464;22;20118;-88
2021/05/08 12:36:21;;;;;;;1.85;1.00;;;18.00;44.40;;;;;;6319470;22;20023;-88
2021/05/08 12:38:49;;;;;;;1.90;1.30;;;18.40;44.30;;;;;;6323759;22;20027;-85
2021/05/08 12:41:32;;;;;;;2.13;1.10;;;18.60;43.20;;;;;;6326816;22;20015;-87
2021/05/08 12:44:10;;;;;;;2.10;1.10;;;18.70;43.20;;;;;;6329376;22;20053;-88
2021/05/08 12:47:21;;;;;;;2.95;0.95;;;18.10;42.80;;;;;;6304061;22;20062;-87
2021/05/08 12:50:10;;;;;;;1.50;1.00;;;17.60;45.00;;;;;;6206276;23;20013;-87
2021/05/08 12:52:39;;;;;;;1.10;1.00;;;17.60;46.50;;;;;;6323355;22;20316;-87
2021/05/08 12:55:21;;;;;;;1.35;1.00;;;17.60;45.70;;;;;;6289730;22;20107;-86
2021/05/08 12:57:47;;;;;;;1.58;1.13;;;17.70;45.20;;;;;;6307910;22;20076;-88
2021/05/08 13:00:14;;;;;;;2.25;0.98;;;17.60;45.90;;;;;;6280684;22;20067;-88
2021/05/08 13:02:45;;;;;;;2.03;1.20;;;17.20;45.70;;;;;;6308652;22;20026;-88
2021/05/08 13:05:13;;;;;;;1.85;1.30;;;17.40;46.10;;;;;;6308404;22;20256;-87
2021/05/08 13:07:52;;;;;;;2.10;1.13;;;17.60;45.20;;;;;;6309408;22;20027;-88
2021/05/08 13:10:27;;;;;;;3.47;1.05;;;17.80;45.20;;;;;;6308312;22;20047;-87
2021/05/08 13:12:57;;;;;;;1.10;1.00;;;18.20;45.00;;;;;;6309440;22;20452;-87
2021/05/08 13:15:30;;;;;;;2.78;1.02;;;18.50;46.30;;;;;;6281014;22;20019;-87
2021/05/08 13:17:56;;;;;;;2.30;0.93;;;19.00;44.30;;;;;;6322857;22;20049;-88
2021/05/08 13:20:27;;;;;;;3.83;1.00;;;19.90;42.70;;;;;;6304738;22;20023;-87
2021/05/08 13:22:56;;;;;;;1.77;1.20;;;20.70;40.90;;;;;;6322354;22;20026;-87
2021/05/08 13:25:22;;;;;;;0.88;0.70;;;20.70;39.10;;;;;;6264138;22;20015;-89
2021/05/08 13:27:52;;;;;;;1.17;0.85;;;20.00;40.70;;;;;;6281525;22;20063;-88
2021/05/08 13:30:23;;;;;;;0.85;0.65;;;20.00;40.90;;;;;;6307371;22;20025;-90
2021/05/08 13:32:54;;;;;;;1.58;0.73;;;21.40;39.70;;;;;;6308825;22;20353;-88
2021/05/08 13:35:24;;;;;;;1.25;0.73;;;22.60;37.90;;;;;;6282643;22;20015;-88
2021/05/08 13:37:51;;;;;;;1.02;0.80;;;23.00;36.20;;;;;;6289599;22;20023;-87
2021/05/08 13:40:21;;;;;;;2.08;0.80;;;23.50;36.90;;;;;;6323124;22;20007;-86
2021/05/08 13:42:48;;;;;;;3.13;0.80;;;24.00;35.60;;;;;;6297145;22;20023;-88
2021/05/08 13:45:16;;;;;;;0.50;0.50;;;24.70;35.60;;;;;;6316226;22;20095;-88
2021/05/08 13:47:43;;;;;;;1.95;1.00;;;25.20;32.60;;;;;;6283682;22;20092;-86
2021/05/08 13:50:11;;;;;;;2.90;0.70;;;24.30;34.00;;;;;;6313453;22;20025;-87
2021/05/08 13:52:37;;;;;;;2.88;0.70;;;21.90;36.20;;;;;;6314370;22;20038;-87
2021/05/08 13:55:07;;;;;;;0.93;0.68;;;20.20;39.20;;;;;;6285486;22;20033;-89
2021/05/08 13:57:49;;;;;;;1.65;0.80;;;19.30;41.50;;;;;;6285791;22;20403;-89
2021/05/08 14:00:19;;;;;;;1.27;0.80;;;19.00;42.10;;;;;;6307764;22;20351;-87
2021/05/08 14:02:46;;;;;;;1.08;0.70;;;18.90;42.60;;;;;;6306625;22;20407;-88
2021/05/08 14:05:13;;;;;;;2.15;0.60;;;19.10;43.30;;;;;;6278702;22;20015;-90
2021/05/08 14:07:40;;;;;;;1.10;0.82;;;19.10;43.90;;;;;;6280033;22;20073;-91
2021/05/08 14:10:10;;;;;;;1.25;0.90;;;19.20;42.80;;;;;;6306508;22;20057;-88
2021/05/08 14:12:36;;;;;;;2.83;0.95;;;19.10;43.60;;;;;;6305864;22;20314;-88
2021/05/08 14:15:04;;;;;;;1.23;1.00;;;19.10;43.40;;;;;;6306124;22;20027;-89
2021/05/08 14:17:30;;;;;;;1.40;0.98;;;19.00;44.10;;;;;;6306304;22;20052;-88
2021/05/08 14:20:01;;;;;;;1.60;1.13;;;19.10;44.10;;;;;;6306254;22;20015;-88
2021/05/08 14:22:27;;;;;;;1.05;0.90;;;19.20;44.00;;;;;;6305836;22;20050;-87
2021/05/08 14:24:53;;;;;;;1.52;0.98;;;19.40;42.90;;;;;;6279183;22;20020;-86
2021/05/08 14:27:25;;;;;;;1.20;0.70;;;19.50;42.60;;;;;;6277954;22;20031;-87
2021/05/08 14:29:52;;;;;;;1.52;0.88;;;19.70;41.90;;;;;;6305988;22;20081;-85
2021/05/08 14:32:24;;;;;;;1.85;0.88;;;20.00;42.30;;;;;;6305972;22;20073;-89
2021/05/08 14:34:53;;;;;;;1.50;0.83;;;20.00;43.30;;;;;;6306132;22;20100;-89
2021/05/08 14:37:20;;;;;;;1.23;0.68;;;20.20;42.80;;;;;;6305706;22;20252;-88
2021/05/08 14:39:50;;;;;;;1.17;0.80;;;20.30;42.50;;;;;;6284306;22;20100;-90